CST,Max TemperatureF,Mean TemperatureF,Min TemperatureF,Max Dew PointF,MeanDew PointF,Min DewpointF,Max Humidity, Mean Humidity, Min Humidity, Max Sea Level PressureIn, Mean Sea Level PressureIn, Min Sea Level PressureIn, Max VisibilityMiles, Mean VisibilityMiles, Min VisibilityMiles, Max Wind SpeedMPH, Mean Wind SpeedMPH, Max Gust SpeedMPH,PrecipitationIn, CloudCover, Events, WindDirDegrees
2012-11-1,65,47,29,40,32,23,92,59,25,30.09,30.01,29.97,10,10,10,13,2,16,0.00,1,,265
2012-11-2,72,57,41,45,42,37,86,61,35,30.03,29.99,29.93,10,10,10,10,4,14,0.00,0,,299
2012-11-3,83,64,45,62,50,35,93,68,43,30.10,30.00,29.91,10,9,2,23,8,30,0.24,2,Rain,246
2012-11-4,57,46,35,42,38,34,100,74,47,30.20,30.15,30.10,10,10,7,14,5,22,0.00,1,,356
2012-11-5,57,46,34,45,39,33,92,68,43,30.15,30.08,30.02,10,9,3,10,4,15,0.28,5,Rain,68
2012-11-6,53,49,44,45,43,41,92,82,71,30.09,30.03,29.97,10,8,3,10,5,15,0.00,8,,307
2012-11-7,53,43,32,42,38,30,100,81,61,30.19,30.06,29.97,10,10,9,24,7,31,T,4,,310
2012-11-8,59,43,27,42,35,27,100,74,47,30.30,30.22,30.17,10,10,10,6,1,12,0.00,0,,190
2012-11-9,71,53,34,42,39,33,92,62,31,30.25,30.18,30.12,10,10,7,15,6,18,0.00,0,,182
2012-11-10,74,62,50,51,45,40,80,55,29,30.25,30.17,30.12,10,10,10,16,9,22,0.00,0,,176
2012-11-11,73,65,57,59,52,44,97,72,46,30.17,30.08,30.00,10,9,3,25,13,36,0.55,5,Rain-Thunderstorm,172
2012-11-12,62,46,29,58,43,26,100,71,42,30.48,30.25,30.01,10,8,2,23,8,31,0.72,5,Rain,307
2012-11-13,52,39,25,31,27,24,100,69,38,30.55,30.47,30.42,10,10,9,15,5,21,0.00,0,,27
2012-11-14,51,41,31,34,30,26,89,71,52,30.43,30.38,30.32,10,10,10,13,5,15,0.00,0,,17
2012-11-15,56,42,27,36,31,25,100,69,38,30.39,30.34,30.29,10,10,3,10,3,16,0.00,0,,352
2012-11-16,59,44,28,36,31,27,92,64,36,30.43,30.39,30.35,10,9,4,14,3,16,0.00,0,,14
2012-11-17,62,45,27,35,31,26,92,63,34,30.48,30.41,30.37,10,10,9,8,1,10,0.00,0,,7
2012-11-18,66,47,28,37,32,27,92,61,30,30.43,30.37,30.32,10,10,10,12,1,13,0.00,0,,187
2012-11-19,67,50,32,43,38,31,96,69,42,30.34,30.27,30.18,10,10,9,8,1,10,0.00,1,,232
2012-11-20,70,55,40,48,44,39,96,69,42,30.19,30.14,30.07,10,10,10,12,4,17,0.00,2,,242
2012-11-21,67,53,38,48,44,37,100,74,48,30.27,30.21,30.14,10,4,0,13,3,15,0.00,1,Fog-Rain,346
2012-11-22,69,51,32,46,38,31,100,69,37,30.24,30.18,30.12,10,8,3,14,4,17,0.00,0,,200
2012-11-23,59,48,37,50,38,23,96,66,36,30.32,30.21,30.12,10,10,6,21,10,26,0.13,3,Rain,304
2012-11-24,44,34,24,24,22,20,88,65,41,30.38,30.29,30.18,10,10,10,13,5,17,0.00,0,,340
2012-11-25,59,41,23,28,25,20,92,59,26,30.16,30.08,30.01,10,10,10,15,5,18,0.00,0,,197
2012-11-26,53,45,37,49,43,30,100,75,49,30.20,30.10,30.06,10,6,1,22,4,28,0.24,8,Rain,51
2012-11-27,45,36,26,40,33,28,96,81,65,30.38,30.32,30.20,10,9,4,20,9,23,0.08,4,Rain,9
2012-11-28,50,36,22,29,27,25,92,87,65,30.50,30.43,30.38,10,6,0,4,2,,0.00,0,Fog,57
2012-11-29,59,42,24,34,28,23,92,60,28,30.41,30.33,30.26,10,10,10,12,2,15,0.00,0,,183
2012-11-30,63,47,31,45,39,29,100,76,52,30.29,30.24,30.18,10,10,10,14,6,18,0.00,0,,178